Time,TemperatureF,DewpointF,PressureIn,WindDirection,WindDirectionDegrees,WindSpeedMPH,WindSpeedGustMPH,Humidity,HourlyPrecipIn,Conditions,Clouds,dailyrainin,SoftwareType,DateUTC
2013-02-14 00:11:00,31.8,23.0,0.00,North,360,0.0,-999.0,71,-99.99,,,0.00,weatherlink.com 1.10,2013-02-14 05:11:00,
2013-02-14 00:26:00,31.8,24.0,0.00,North,360,0.0,-999.0,72,-99.99,,,0.00,weatherlink.com 1.10,2013-02-14 05:26:00,
2013-02-14 00:41:00,31.4,23.0,0.00,North,360,0.0,-999.0,71,-99.99,,,0.00,weatherlink.com 1.10,2013-02-14 05:41:00,
2013-02-14 00:56:00,31.3,24.0,0.00,North,360,0.0,-999.0,75,-99.99,,,0.00,weatherlink.com 1.10,2013-02-14 05:56:00,
2013-02-14 01:11:00,30.9,24.0,0.00,North,360,0.0,-999.0,75,-99.99,,,0.00,weatherlink.com 1.10,2013-02-14 06:11:00,
2013-02-14 01:26:00,30.8,24.0,0.00,North,360,0.0,-999.0,76,-99.99,,,0.00,weatherlink.com 1.10,2013-02-14 06:26:00,
2013-02-14 01:41:00,30.6,24.0,0.00,North,360,0.0,-999.0,77,-99.99,,,0.00,weatherlink.com 1.10,2013-02-14 06:41:00,
2013-02-14 01:56:00,30.4,24.0,0.00,North,360,0.0,-999.0,78,-99.99,,,0.00,weatherlink.com 1.10,2013-02-14 06:56:00,
2013-02-14 02:11:00,30.2,24.0,0.00,North,360,0.0,-999.0,78,-99.99,,,0.00,weatherlink.com 1.10,2013-02-14 07:11:00,
2013-02-14 02:26:00,30.1,24.0,0.00,North,360,0.0,-999.0,77,-99.99,,,0.00,weatherlink.com 1.10,2013-02-14 07:26:00,
2013-02-14 02:41:00,29.9,24.0,0.00,North,360,0.0,-999.0,79,-99.99,,,0.00,weatherlink.com 1.10,2013-02-14 07:41:00,
2013-02-14 02:56:00,29.7,24.0,0.00,North,360,0.0,-999.0,79,-99.99,,,0.00,weatherlink.com 1.10,2013-02-14 07:56:00,
2013-02-14 03:11:00,29.5,23.0,0.00,North,360,0.0,-999.0,78,-99.99,,,0.00,weatherlink.com 1.10,2013-02-14 08:11:00,
2013-02-14 03:26:00,29.5,23.0,0.00,North,360,0.0,-999.0,77,-99.99,,,0.00,weatherlink.com 1.10,2013-02-14 08:26:00,
2013-02-14 03:41:00,29.6,23.0,0.00,North,360,0.0,-999.0,77,-99.99,,,0.00,weatherlink.com 1.10,2013-02-14 08:41:00,
2013-02-14 03:57:00,29.6,23.0,0.00,North,360,0.0,-999.0,75,-99.99,,,0.00,weatherlink.com 1.10,2013-02-14 08:57:00,
2013-02-14 04:12:00,29.9,23.0,0.00,North,5,0.0,-999.0,74,-99.99,,,0.00,weatherlink.com 1.10,2013-02-14 09:12:00,
2013-02-14 04:27:00,30.1,22.0,0.00,North,349,0.0,-999.0,73,-99.99,,,0.00,weatherlink.com 1.10,2013-02-14 09:27:00,
2013-02-14 04:41:00,30.5,22.0,0.00,North,360,0.0,-999.0,72,-99.99,,,0.00,weatherlink.com 1.10,2013-02-14 09:41:00,
2013-02-14 04:56:00,30.3,22.0,0.00,NW,326,0.0,-999.0,71,-99.99,,,0.00,weatherlink.com 1.10,2013-02-14 09:56:00,
2013-02-14 05:11:00,30.0,22.0,0.00,North,360,0.0,-999.0,72,-99.99,,,0.00,weatherlink.com 1.10,2013-02-14 10:11:00,
2013-02-14 05:26:00,29.4,21.0,0.00,North,360,0.0,-999.0,72,-99.99,,,0.00,weatherlink.com 1.10,2013-02-14 10:26:00,
2013-02-14 05:41:00,28.8,22.0,0.00,North,5,0.0,-999.0,75,-99.99,,,0.00,weatherlink.com 1.10,2013-02-14 10:41:00,
2013-02-14 05:56:00,28.4,21.0,0.00,North,5,0.0,-999.0,73,-99.99,,,0.00,weatherlink.com 1.10,2013-02-14 10:56:00,
2013-02-14 06:11:00,27.7,20.0,0.00,North,5,0.0,-999.0,74,-99.99,,,0.00,weatherlink.com 1.10,2013-02-14 11:11:00,
2013-02-14 06:26:00,27.2,20.0,0.00,North,5,0.0,-999.0,75,-99.99,,,0.00,weatherlink.com 1.10,2013-02-14 11:26:00,
2013-02-14 06:41:00,26.8,20.0,0.00,North,360,0.0,-999.0,75,-99.99,,,0.00,weatherlink.com 1.10,2013-02-14 11:41:00,
2013-02-14 06:56:00,26.3,20.0,0.00,North,360,0.0,-999.0,76,-99.99,,,0.00,weatherlink.com 1.10,2013-02-14 11:56:00,
2013-02-14 07:11:00,26.1,20.0,0.00,North,5,0.0,-999.0,77,-99.99,,,0.00,weatherlink.com 1.10,2013-02-14 12:11:00,
2013-02-14 07:26:00,26.2,20.0,0.00,North,5,0.0,-999.0,78,-99.99,,,0.00,weatherlink.com 1.10,2013-02-14 12:26:00,
2013-02-14 07:41:00,27.2,22.0,0.00,North,5,0.0,-999.0,79,-99.99,,,0.00,weatherlink.com 1.10,2013-02-14 12:41:00,
2013-02-14 07:56:00,28.1,21.0,0.00,North,360,0.0,-999.0,75,-99.99,,,0.00,weatherlink.com 1.10,2013-02-14 12:56:00,
2013-02-14 08:11:00,29.4,21.0,0.00,NNE,26,0.0,-999.0,72,-99.99,,,0.00,weatherlink.com 1.10,2013-02-14 13:11:00,
2013-02-14 08:26:00,31.1,22.0,0.00,SE,146,2.0,-999.0,69,-99.99,,,0.00,weatherlink.com 1.10,2013-02-14 13:26:00,
2013-02-14 08:41:00,32.5,22.0,0.00,NNE,26,0.0,-999.0,65,-99.99,,,0.00,weatherlink.com 1.10,2013-02-14 13:41:00,
2013-02-14 08:56:00,33.9,23.0,0.00,NNW,338,0.0,-999.0,64,-99.99,,,0.00,weatherlink.com 1.10,2013-02-14 13:56:00,
2013-02-14 09:11:00,35.3,23.0,0.00,North,355,2.0,-999.0,61,-99.99,,,0.00,weatherlink.com 1.10,2013-02-14 14:11:00,
2013-02-14 09:26:00,36.5,23.0,0.00,NNW,348,2.0,-999.0,58,-99.99,,,0.00,weatherlink.com 1.10,2013-02-14 14:26:00,
2013-02-14 09:41:00,37.3,22.0,0.00,North,355,1.0,-999.0,54,-99.99,,,0.00,weatherlink.com 1.10,2013-02-14 14:41:00,
2013-02-14 09:56:00,38.1,22.0,0.00,North,360,0.0,-999.0,53,-99.99,,,0.00,weatherlink.com 1.10,2013-02-14 14:56:00,
2013-02-14 10:11:00,38.5,23.0,0.00,NNE,32,0.0,-999.0,53,-99.99,,,0.00,weatherlink.com 1.10,2013-02-14 15:11:00,
2013-02-14 10:26:00,39.1,23.0,0.00,NNW,345,0.0,-999.0,52,-99.99,,,0.00,weatherlink.com 1.10,2013-02-14 15:26:00,
2013-02-14 10:41:00,39.6,23.0,0.00,West,271,0.0,-999.0,51,-99.99,,,0.00,weatherlink.com 1.10,2013-02-14 15:41:00,
2013-02-14 10:56:00,39.6,23.0,0.00,NNE,14,1.0,-999.0,52,-99.99,,,0.00,weatherlink.com 1.10,2013-02-14 15:56:00,
2013-02-14 11:11:00,40.4,23.0,0.00,North,355,0.0,-999.0,50,-99.99,,,0.00,weatherlink.com 1.10,2013-02-14 16:11:00,
2013-02-14 11:26:00,40.2,22.0,0.00,NNW,338,4.0,-999.0,49,-99.99,,,0.00,weatherlink.com 1.10,2013-02-14 16:26:00,
2013-02-14 11:41:00,40.1,22.0,0.00,NNW,329,3.0,-999.0,49,-99.99,,,0.00,weatherlink.com 1.10,2013-02-14 16:41:00,
2013-02-14 11:56:00,40.5,24.0,0.00,NNW,341,2.0,-999.0,52,-99.99,,,0.00,weatherlink.com 1.10,2013-02-14 16:56:00,
2013-02-14 12:11:00,40.8,24.0,0.00,NNW,348,0.0,-999.0,51,-99.99,,,0.00,weatherlink.com 1.10,2013-02-14 17:11:00,
2013-02-14 12:26:00,40.6,23.0,0.00,North,351,0.0,-999.0,50,-99.99,,,0.00,weatherlink.com 1.10,2013-02-14 17:26:00,
2013-02-14 12:41:00,40.4,22.0,0.00,NNW,344,0.0,-999.0,49,-99.99,,,0.00,weatherlink.com 1.10,2013-02-14 17:41:00,
2013-02-14 12:57:00,41.3,22.0,0.00,North,5,0.0,-999.0,47,-99.99,,,0.00,weatherlink.com 1.10,2013-02-14 17:57:00,
2013-02-14 13:12:00,41.9,23.0,0.00,North,5,1.0,-999.0,47,-99.99,,,0.00,weatherlink.com 1.10,2013-02-14 18:12:00,
2013-02-14 13:27:00,42.2,23.0,0.00,NNE,28,0.0,-999.0,46,-99.99,,,0.00,weatherlink.com 1.10,2013-02-14 18:27:00,
2013-02-14 13:42:00,42.2,22.0,0.00,SSW,209,0.0,-999.0,45,-99.99,,,0.00,weatherlink.com 1.10,2013-02-14 18:42:00,
2013-02-14 13:57:00,42.2,23.0,0.00,South,173,0.0,-999.0,46,-99.99,,,0.00,weatherlink.com 1.10,2013-02-14 18:57:00,
2013-02-14 14:12:00,42.4,23.0,0.00,NNW,327,3.0,-999.0,46,-99.99,,,0.00,weatherlink.com 1.10,2013-02-14 19:12:00,
2013-02-14 14:27:00,42.3,23.0,0.00,NNW,334,0.0,-999.0,46,-99.99,,,0.00,weatherlink.com 1.10,2013-02-14 19:27:00,
2013-02-14 14:42:00,42.9,23.0,0.00,North,5,0.0,-999.0,45,-99.99,,,0.00,weatherlink.com 1.10,2013-02-14 19:42:00,
2013-02-14 14:57:00,42.9,24.0,0.00,WSW,254,0.0,-999.0,47,-99.99,,,0.00,weatherlink.com 1.10,2013-02-14 19:57:00,
2013-02-14 15:12:00,42.4,24.0,0.00,WNW,295,2.0,-999.0,48,-99.99,,,0.00,weatherlink.com 1.10,2013-02-14 20:12:00,
2013-02-14 15:27:00,42.4,24.0,0.00,North,11,0.0,-999.0,48,-99.99,,,0.00,weatherlink.com 1.10,2013-02-14 20:27:00,
2013-02-14 15:42:00,42.3,23.0,0.00,WNW,299,0.0,-999.0,47,-99.99,,,0.00,weatherlink.com 1.10,2013-02-14 20:42:00,
2013-02-14 15:56:00,42.2,23.0,0.00,NW,321,0.0,-999.0,47,-99.99,,,0.00,weatherlink.com 1.10,2013-02-14 20:56:00,
2013-02-14 16:11:00,41.4,22.0,0.00,North,355,0.0,-999.0,47,-99.99,,,0.00,weatherlink.com 1.10,2013-02-14 21:11:00,
2013-02-14 16:26:00,40.7,22.0,0.00,West,260,1.0,-999.0,48,-99.99,,,0.00,weatherlink.com 1.10,2013-02-14 21:26:00,
2013-02-14 16:41:00,40.4,23.0,0.00,WSW,241,0.0,-999.0,50,-99.99,,,0.00,weatherlink.com 1.10,2013-02-14 21:41:00,
2013-02-14 16:57:00,39.3,21.0,0.00,WSW,240,0.0,-999.0,49,-99.99,,,0.00,weatherlink.com 1.10,2013-02-14 21:57:00,
2013-02-14 17:12:00,39.0,22.0,0.00,WSW,240,0.0,-999.0,50,-99.99,,,0.00,weatherlink.com 1.10,2013-02-14 22:12:00,
2013-02-14 17:27:00,37.7,21.0,0.00,WSW,240,0.0,-999.0,52,-99.99,,,0.00,weatherlink.com 1.10,2013-02-14 22:27:00,
2013-02-14 17:42:00,36.2,20.0,0.00,WSW,240,0.0,-999.0,53,-99.99,,,0.00,weatherlink.com 1.10,2013-02-14 22:42:00,
2013-02-14 17:56:00,34.8,20.0,0.00,WSW,240,0.0,-999.0,55,-99.99,,,0.00,weatherlink.com 1.10,2013-02-14 22:56:00,
2013-02-14 18:11:00,33.6,23.0,0.00,WSW,240,0.0,-999.0,66,-99.99,,,0.00,weatherlink.com 1.10,2013-02-14 23:11:00,
2013-02-14 18:26:00,32.2,20.0,0.00,WSW,240,0.0,-999.0,61,-99.99,,,0.00,weatherlink.com 1.10,2013-02-14 23:26:00,
2013-02-14 18:41:00,31.1,21.0,0.00,WSW,240,0.0,-999.0,65,-99.99,,,0.00,weatherlink.com 1.10,2013-02-14 23:41:00,
2013-02-14 18:57:00,30.2,20.0,21.58,WSW,240,0.0,-999.0,66,-99.99,,,0.00,weatherlink.com 1.10,2013-02-14 23:57:00,
2013-02-14 19:12:00,29.5,20.0,21.58,WSW,240,0.0,-999.0,67,-99.99,,,0.00,weatherlink.com 1.10,2013-02-15 00:12:00,
2013-02-14 19:27:00,29.1,21.0,21.58,WSW,240,0.0,-999.0,71,-99.99,,,0.00,weatherlink.com 1.10,2013-02-15 00:27:00,
2013-02-14 19:42:00,28.8,20.0,21.58,WSW,240,0.0,-999.0,71,-99.99,,,0.00,weatherlink.com 1.10,2013-02-15 00:42:00,
2013-02-14 19:57:00,28.7,21.0,21.58,WSW,240,0.0,-999.0,72,-99.99,,,0.00,weatherlink.com 1.10,2013-02-15 00:57:00,
2013-02-14 20:26:00,28.9,21.0,21.58,WSW,240,0.0,-999.0,73,-99.99,,,0.00,weatherlink.com 1.10,2013-02-15 01:26:00,
2013-02-14 20:41:00,28.3,21.0,21.58,WSW,240,0.0,-999.0,74,-99.99,,,0.00,weatherlink.com 1.10,2013-02-15 01:41:00,
2013-02-14 20:57:00,27.8,21.0,21.58,WSW,240,0.0,-999.0,76,-99.99,,,0.00,weatherlink.com 1.10,2013-02-15 01:57:00,
2013-02-14 21:12:00,27.1,21.0,21.58,WSW,240,0.0,-999.0,77,-99.99,,,0.00,weatherlink.com 1.10,2013-02-15 02:12:00,
2013-02-14 21:27:00,26.8,21.0,21.58,WSW,240,0.0,-999.0,79,-99.99,,,0.00,weatherlink.com 1.10,2013-02-15 02:27:00,
2013-02-14 21:42:00,26.8,21.0,21.58,WSW,240,0.0,-999.0,80,-99.99,,,0.00,weatherlink.com 1.10,2013-02-15 02:42:00,
2013-02-14 21:57:00,26.6,22.0,21.58,WSW,240,0.0,-999.0,81,-99.99,,,0.00,weatherlink.com 1.10,2013-02-15 02:57:00,
2013-02-14 22:12:00,26.3,21.0,21.58,WSW,240,0.0,-999.0,81,-99.99,,,0.00,weatherlink.com 1.10,2013-02-15 03:12:00,
2013-02-14 22:27:00,26.1,21.0,21.58,WSW,240,0.0,-999.0,82,-99.99,,,0.00,weatherlink.com 1.10,2013-02-15 03:27:00,
2013-02-14 22:41:00,27.0,22.0,21.58,WSW,255,0.0,-999.0,82,-99.99,,,0.00,weatherlink.com 1.10,2013-02-15 03:41:00,
2013-02-14 22:57:00,27.9,23.0,21.58,WSW,254,0.0,-999.0,80,-99.99,,,0.00,weatherlink.com 1.10,2013-02-15 03:57:00,
2013-02-14 23:12:00,27.9,23.0,21.58,WSW,254,0.0,-999.0,80,-99.99,,,0.00,weatherlink.com 1.10,2013-02-15 04:12:00,
2013-02-14 23:27:00,27.7,22.0,21.58,WSW,253,0.0,-999.0,80,-99.99,,,0.00,weatherlink.com 1.10,2013-02-15 04:27:00,
2013-02-14 23:42:00,27.5,22.0,21.58,WSW,253,0.0,-999.0,80,-99.99,,,0.00,weatherlink.com 1.10,2013-02-15 04:42:00,
2013-02-14 23:57:00,27.4,22.0,0.00,WSW,254,0.0,-999.0,80,-99.99,,,0.00,weatherlink.com 1.10,2013-02-15 04:57:00,